createdAt,value
2018-04-12T00:00:59.685Z,65.90
2018-04-12T00:03:27.153Z,66.10
2018-04-12T00:05:54.604Z,66.00
2018-04-12T00:08:22.069Z,66.00
2018-04-12T00:10:49.528Z,66.20
2018-04-12T00:13:16.989Z,66.30
2018-04-12T00:15:44.449Z,66.40
2018-04-12T00:18:11.912Z,66.40
2018-04-12T00:20:39.373Z,66.40
2018-04-12T00:23:06.849Z,66.60
2018-04-12T00:25:34.329Z,66.80
2018-04-12T00:28:01.814Z,67.00
2018-04-12T00:30:29.265Z,67.00
2018-04-12T00:32:56.728Z,67.20
2018-04-12T00:35:24.185Z,67.40
2018-04-12T00:37:51.677Z,67.40
2018-04-12T00:40:19.147Z,67.40
2018-04-12T00:42:46.606Z,67.50
2018-04-12T00:45:14.069Z,67.70
2018-04-12T00:47:41.525Z,67.70
2018-04-12T00:50:09.002Z,67.70
2018-04-12T00:52:36.472Z,67.70
2018-04-12T00:55:03.950Z,67.70
2018-04-12T00:57:32.176Z,68.40
2018-04-12T00:59:59.633Z,67.60
2018-04-12T01:02:27.110Z,67.60
2018-04-12T01:04:54.561Z,67.50
2018-04-12T01:07:22.102Z,67.40
2018-04-12T01:09:49.566Z,67.30
2018-04-12T01:12:17.033Z,67.20
2018-04-12T01:14:44.494Z,67.20
2018-04-12T01:17:11.961Z,67.40
2018-04-12T01:19:39.416Z,67.30
2018-04-12T01:22:06.889Z,67.40
2018-04-12T01:24:34.348Z,67.50
2018-04-12T01:27:01.818Z,68.10
2018-04-12T01:29:30.038Z,67.50
2018-04-12T01:31:57.500Z,67.40
2018-04-12T01:34:24.984Z,67.30
2018-04-12T01:36:52.441Z,67.30
2018-04-12T01:39:19.897Z,67.30
2018-04-12T01:41:47.349Z,67.40
2018-04-12T01:44:14.825Z,67.50
2018-04-12T01:46:42.288Z,67.50
2018-04-12T01:49:09.752Z,67.70
2018-04-12T01:51:37.981Z,67.90
2018-04-12T01:54:05.460Z,67.90
2018-04-12T01:56:32.917Z,67.90
2018-04-12T01:59:00.388Z,67.90
2018-04-12T02:01:27.849Z,67.80
2018-04-12T02:03:56.092Z,68.10
2018-04-12T02:06:23.549Z,68.10
2018-04-12T02:08:51.027Z,68.10
2018-04-12T02:11:18.477Z,68.20
2018-04-12T02:13:45.937Z,68.30
2018-04-12T02:16:13.408Z,68.90
2018-04-12T02:18:41.638Z,68.20
2018-04-12T02:21:09.886Z,68.30
2018-04-12T02:23:37.333Z,68.20
2018-04-12T02:26:04.801Z,68.20
2018-04-12T02:28:32.263Z,68.20
2018-04-12T02:30:59.729Z,68.30
2018-04-12T02:33:27.188Z,68.30
2018-04-12T02:35:54.675Z,68.30
2018-04-12T02:38:22.141Z,68.20
2018-04-12T02:40:49.601Z,68.20
2018-04-12T02:43:17.832Z,68.20
2018-04-12T02:45:45.293Z,68.00
2018-04-12T02:48:12.766Z,68.10
2018-04-12T02:50:40.267Z,67.90
2018-04-12T02:53:07.709Z,67.70
2018-04-12T02:55:35.929Z,67.60
2018-04-12T02:58:03.397Z,67.50
2018-04-12T03:00:30.855Z,67.60
2018-04-12T03:02:58.321Z,67.40
2018-04-12T03:05:25.769Z,67.40
2018-04-12T03:07:53.243Z,67.20
2018-04-12T03:10:21.225Z,67.30
2018-04-12T03:12:48.689Z,67.40
2018-04-12T03:15:16.180Z,67.50
2018-04-12T03:17:43.649Z,67.40
2018-04-12T03:20:11.105Z,67.40
2018-04-12T03:22:38.597Z,67.30
2018-04-12T03:25:06.065Z,67.30
2018-04-12T03:27:33.511Z,67.20
2018-04-12T03:30:00.984Z,67.20
2018-04-12T03:32:28.437Z,67.20
2018-04-12T03:34:55.916Z,67.30
2018-04-12T03:37:24.141Z,67.50
2018-04-12T03:39:51.617Z,67.50
2018-04-12T03:42:19.089Z,67.50
2018-04-12T03:44:46.552Z,67.50
2018-04-12T03:47:14.008Z,67.60
2018-04-12T03:49:41.537Z,67.80
2018-04-12T03:52:08.936Z,67.90
2018-04-12T03:54:36.429Z,68.10
2018-04-12T03:57:03.886Z,68.20
2018-04-12T03:59:31.341Z,68.30
2018-04-12T04:01:58.806Z,68.40
2018-04-12T04:04:26.270Z,68.20
2018-04-12T04:06:53.744Z,68.20
2018-04-12T04:09:21.230Z,68.20
2018-04-12T04:11:48.713Z,67.90
2018-04-12T04:14:27.996Z,68.00
2018-04-12T04:17:07.334Z,67.80
2018-04-12T04:19:46.555Z,67.60
2018-04-12T04:22:14.029Z,67.60
2018-04-12T04:24:41.480Z,67.20
2018-04-12T04:27:08.952Z,67.20
2018-04-12T04:29:36.401Z,67.10
2018-04-12T04:32:03.889Z,67.00
2018-04-12T04:34:32.181Z,66.90
2018-04-12T04:36:59.636Z,66.90
2018-04-12T04:39:27.136Z,66.80
2018-04-12T04:41:54.593Z,66.80
2018-04-12T04:44:22.058Z,66.80
2018-04-12T04:46:49.521Z,66.70
2018-04-12T04:49:17.015Z,66.60
2018-04-12T04:51:44.467Z,66.40
2018-04-12T04:54:11.933Z,66.40
2018-04-12T04:56:39.396Z,66.30
2018-04-12T04:59:06.865Z,66.10
2018-04-12T05:01:35.105Z,66.00
2018-04-12T05:04:02.579Z,66.10
2018-04-12T05:06:30.033Z,65.90
2018-04-12T05:08:57.501Z,65.70
2018-04-12T05:11:24.973Z,65.70
2018-04-12T05:13:52.433Z,65.70
2018-04-12T05:16:19.901Z,65.70
2018-04-12T05:18:47.357Z,65.70
2018-04-12T05:21:14.827Z,65.60
2018-04-12T05:23:42.288Z,65.40
2018-04-12T05:26:09.752Z,65.30
2018-04-12T05:28:37.213Z,65.20
2018-04-12T05:31:04.685Z,65.30
2018-04-12T05:33:32.137Z,65.20
2018-04-12T05:35:59.621Z,65.20
2018-04-12T05:38:27.077Z,65.10
2018-04-12T05:40:54.755Z,65.10
2018-04-12T05:43:23.153Z,64.90
2018-04-12T05:45:50.618Z,64.90
2018-04-12T05:48:18.084Z,64.70
2018-04-12T05:50:45.542Z,64.90
2018-04-12T05:53:13.001Z,64.80
2018-04-12T05:55:41.220Z,64.90
2018-04-12T05:58:09.376Z,64.90
2018-04-12T06:00:37.008Z,65.00
2018-04-12T06:03:04.468Z,65.10
2018-04-12T06:05:32.137Z,65.10
2018-04-12T06:07:59.616Z,65.10
2018-04-12T06:10:27.125Z,64.90
2018-04-12T06:12:54.876Z,64.80
2018-04-12T06:15:22.541Z,64.60
2018-04-12T06:17:50.033Z,64.30
2018-04-12T06:20:17.493Z,64.00
2018-04-12T06:22:44.949Z,63.60
2018-04-12T06:25:12.477Z,63.20
2018-04-12T06:27:40.042Z,63.70
2018-04-12T06:30:07.505Z,62.70
2018-04-12T06:32:35.744Z,62.10
2018-04-12T06:35:03.212Z,62.10
2018-04-12T06:54:47.952Z,60.30
2018-04-12T06:57:15.477Z,60.20
2018-04-12T06:59:43.013Z,60.20
2018-04-12T07:02:10.783Z,60.10
2018-04-12T07:04:38.396Z,59.90
2018-04-12T07:07:05.929Z,59.70
2018-04-12T07:09:33.453Z,59.60
2018-04-12T07:12:01.072Z,59.40
2018-04-12T07:14:28.601Z,59.30
2018-04-12T07:16:56.057Z,59.20
2018-04-12T07:19:23.529Z,59.00
2018-04-12T07:21:51.045Z,58.90
2018-04-12T07:24:18.509Z,58.80
2018-04-12T07:26:45.965Z,58.60
2018-04-12T07:29:13.427Z,58.40
2018-04-12T07:31:40.878Z,58.40
2018-04-12T07:34:08.547Z,58.30
2018-04-12T07:36:36.048Z,58.20
2018-04-12T07:39:03.541Z,58.10
2018-04-12T07:41:31.190Z,58.10
2018-04-12T07:43:58.676Z,58.10
2018-04-12T07:46:26.151Z,58.00
2018-04-12T07:48:53.608Z,57.90
2018-04-12T07:51:21.078Z,57.80
2018-04-12T07:53:48.533Z,57.60
2018-04-12T07:56:16.002Z,57.50
2018-04-12T07:58:44.385Z,57.20
2018-04-12T08:01:12.046Z,57.10
2018-04-12T08:03:39.681Z,56.90
2018-04-12T08:06:07.330Z,56.50
2018-04-12T08:08:34.779Z,56.20
2018-04-12T08:11:02.257Z,55.90
2018-04-12T08:13:29.705Z,55.60
2018-04-12T08:15:57.196Z,55.20
2018-04-12T08:18:24.653Z,55.00
2018-04-12T08:20:52.160Z,54.80
2018-04-12T08:23:19.771Z,54.50
2018-04-12T08:25:47.281Z,54.20
2018-04-12T08:28:15.753Z,53.80
2018-04-12T08:30:43.200Z,53.80
2018-04-12T08:33:10.675Z,53.70
2018-04-12T08:35:38.427Z,53.60
2018-04-12T08:38:05.884Z,53.60
2018-04-12T08:40:33.340Z,53.50
2018-04-12T08:43:00.812Z,53.40
2018-04-12T08:45:28.293Z,53.10
2018-04-12T08:47:55.766Z,52.90
2018-04-12T08:50:23.486Z,52.70
2018-04-12T08:52:51.093Z,52.50
2018-04-12T08:55:18.581Z,52.30
2018-04-12T08:57:46.034Z,52.90
2018-04-12T09:00:13.617Z,52.20
2018-04-12T09:02:41.388Z,52.00
2018-04-12T09:05:09.141Z,51.40
2018-04-12T09:07:36.979Z,50.90
2018-04-12T09:10:04.590Z,50.70
2018-04-12T09:12:32.046Z,50.40
2018-04-12T09:14:59.514Z,50.30
2018-04-12T09:17:26.961Z,50.00
2018-04-12T09:19:54.495Z,49.80
2018-04-12T09:22:21.957Z,49.50
2018-04-12T09:24:49.875Z,49.30
2018-04-12T09:27:17.405Z,49.10
2018-04-12T09:29:44.922Z,48.90
2018-04-12T09:32:12.398Z,48.70
2018-04-12T09:34:40.163Z,48.40
2018-04-12T09:37:07.797Z,48.20
2018-04-12T09:39:35.266Z,48.00
2018-04-12T09:42:02.997Z,48.40
2018-04-12T09:44:30.454Z,47.80
2018-04-12T09:46:57.964Z,47.50
2018-04-12T09:49:25.481Z,47.20
2018-04-12T09:51:52.905Z,47.00
2018-04-12T09:54:20.413Z,46.80
2018-04-12T09:56:47.878Z,46.70
2018-04-12T09:59:15.345Z,46.60
2018-04-12T10:01:48.791Z,46.30
2018-04-12T10:04:16.255Z,46.10
2018-04-12T10:06:43.789Z,46.00
2018-04-12T10:09:14.156Z,45.70
2018-04-12T10:11:41.642Z,45.30
2018-04-12T10:14:09.110Z,45.20
2018-04-12T10:16:37.390Z,44.90
2018-04-12T10:19:04.821Z,44.90
2018-04-12T10:21:32.273Z,45.00
2018-04-12T10:24:00.037Z,45.10
2018-04-12T10:26:27.801Z,45.00
2018-04-12T10:28:55.307Z,44.80
2018-04-12T10:31:22.843Z,44.70
2018-04-12T10:33:50.258Z,44.50
2018-04-12T10:36:17.716Z,44.40
2018-04-12T10:38:45.177Z,44.30
2018-04-12T10:41:12.651Z,44.10
2018-04-12T10:43:40.096Z,44.20
2018-04-12T10:46:07.569Z,44.30
2018-04-12T10:48:35.221Z,44.20
2018-04-12T10:51:02.695Z,44.10
2018-04-12T10:53:30.313Z,44.00
2018-04-12T10:55:57.827Z,43.70
2018-04-12T10:58:25.281Z,43.50
2018-04-12T11:00:53.634Z,43.70
2018-04-12T11:03:21.169Z,43.70
2018-04-12T11:05:48.843Z,43.80
2018-04-12T11:08:16.326Z,43.60
2018-04-12T11:10:43.879Z,43.50
2018-04-12T11:13:12.109Z,43.50
2018-04-12T11:15:39.731Z,43.40
2018-04-12T11:18:07.185Z,43.30
2018-04-12T11:20:34.949Z,43.30
2018-04-12T11:23:02.676Z,43.30
2018-04-12T11:25:30.190Z,43.10
2018-04-12T11:27:57.904Z,43.00
2018-04-12T11:30:25.550Z,42.80
2018-04-12T11:32:53.124Z,42.80
2018-04-12T11:35:20.759Z,42.80
2018-04-12T11:37:48.275Z,42.50
2018-04-12T11:40:15.804Z,42.40
2018-04-12T11:42:43.564Z,42.10
2018-04-12T11:45:11.324Z,42.00
2018-04-12T11:47:39.089Z,42.00
2018-04-12T11:50:06.553Z,41.90
2018-04-12T11:52:34.006Z,41.70
2018-04-12T11:55:01.736Z,41.60
2018-04-12T11:57:29.189Z,41.50
2018-04-12T11:59:56.684Z,41.50
2018-04-12T12:02:24.160Z,41.50
2018-04-12T12:04:52.436Z,41.50
2018-04-12T12:07:19.897Z,41.50
2018-04-12T12:09:47.433Z,41.40
2018-04-12T12:12:15.081Z,41.30
2018-04-12T12:14:42.585Z,41.30
2018-04-12T12:17:10.050Z,41.20
2018-04-12T12:19:37.505Z,41.20
2018-04-12T12:22:04.965Z,41.10
2018-04-12T12:24:32.489Z,40.90
2018-04-12T12:27:00.781Z,40.40
2018-04-12T12:29:28.229Z,40.40
2018-04-12T12:31:56.481Z,40.00
2018-04-12T12:34:24.041Z,40.00
2018-04-12T12:36:51.541Z,40.00
2018-04-12T12:39:18.999Z,40.00
2018-04-12T12:41:46.537Z,40.00
2018-04-12T12:44:14.166Z,39.90
2018-04-12T12:46:41.645Z,39.70
2018-04-12T12:49:09.105Z,39.60
2018-04-12T12:51:36.554Z,39.40
2018-04-12T12:54:04.092Z,39.30
2018-04-12T12:56:31.565Z,39.50
2018-04-12T12:58:59.492Z,40.20
2018-04-12T13:01:27.096Z,39.70
2018-04-12T13:03:54.575Z,39.60
2018-04-12T13:06:22.217Z,39.40
2018-04-12T13:08:49.681Z,39.00
2018-04-12T13:11:17.136Z,39.00
2018-04-12T13:13:44.608Z,39.00
2018-04-12T13:16:12.064Z,38.80
2018-04-12T13:18:39.605Z,38.70
2018-04-12T13:21:07.374Z,38.70
2018-04-12T13:23:34.824Z,38.40
2018-04-12T13:26:04.129Z,38.30
2018-04-12T13:28:31.604Z,38.20
2018-04-12T13:30:59.345Z,38.10
2018-04-12T13:33:26.802Z,38.10
2018-04-12T13:35:54.269Z,37.90
2018-04-12T13:38:23.239Z,37.70
2018-04-12T13:40:50.791Z,37.80
2018-04-12T13:43:18.475Z,37.80
2018-04-12T13:45:45.945Z,38.20
2018-04-12T13:48:13.566Z,38.30
2018-04-12T13:50:41.069Z,38.20
2018-04-12T13:53:08.616Z,38.10
2018-04-12T13:55:36.257Z,38.00
2018-04-12T13:58:03.719Z,38.00
2018-04-12T14:00:31.206Z,38.00
2018-04-12T14:02:58.657Z,38.00
2018-04-12T14:05:26.104Z,38.00
2018-04-12T14:07:53.605Z,38.00
2018-04-12T14:10:21.061Z,38.00
2018-04-12T14:12:48.557Z,38.20
2018-04-12T14:15:16.321Z,38.40
2018-04-12T14:17:43.786Z,38.40
2018-04-12T14:20:11.243Z,38.30
2018-04-12T14:22:38.881Z,38.60
2018-04-12T14:25:06.374Z,38.50
2018-04-12T14:27:33.837Z,38.20
2018-04-12T14:30:01.296Z,38.00
2018-04-12T14:32:28.752Z,38.00
2018-04-12T14:34:56.969Z,37.80
2018-04-12T14:37:24.440Z,37.80
2018-04-12T14:39:51.905Z,37.70
2018-04-12T14:42:19.576Z,37.90
2018-04-12T14:44:47.337Z,38.10
2018-04-12T14:47:14.810Z,38.10
2018-04-12T14:49:43.789Z,37.80
2018-04-12T14:52:11.256Z,38.40
2018-04-12T14:54:38.705Z,37.10
2018-04-12T14:57:06.185Z,36.70
2018-04-12T14:59:33.650Z,36.60
2018-04-12T15:02:01.160Z,36.50
2018-04-12T15:04:28.646Z,36.50
2018-04-12T15:06:56.874Z,36.60
2018-04-12T15:09:24.372Z,36.50
2018-04-12T15:11:51.884Z,36.10
2018-04-12T15:14:19.346Z,35.70
2018-04-12T15:16:46.806Z,35.60
2018-04-12T15:19:14.306Z,35.70
2018-04-12T15:21:41.783Z,35.90
2018-04-12T15:24:10.075Z,36.90
2018-04-12T15:26:37.505Z,36.80
2018-04-12T15:29:04.984Z,37.20
2018-04-12T15:31:32.458Z,37.30
2018-04-12T15:33:59.959Z,37.40
2018-04-12T15:36:27.492Z,37.50
2018-04-12T15:38:54.971Z,37.30
2018-04-12T15:41:22.463Z,37.30
2018-04-12T15:43:50.705Z,37.70
2018-04-12T15:46:18.177Z,37.70
2018-04-12T15:48:45.654Z,37.80
2018-04-12T15:51:13.896Z,37.70
2018-04-12T15:53:41.362Z,37.60
2018-04-12T15:56:08.835Z,37.50
2018-04-12T15:58:36.320Z,37.70
2018-04-12T16:01:03.809Z,37.20
2018-04-12T16:03:31.265Z,36.80
2018-04-12T16:05:58.748Z,36.60
2018-04-12T16:08:26.202Z,36.30
2018-04-12T16:10:53.691Z,36.20
2018-04-12T16:13:21.909Z,35.80
2018-04-12T16:15:49.470Z,36.30
2018-04-12T16:18:17.179Z,35.00
2018-04-12T16:20:44.770Z,34.10
2018-04-12T16:23:12.439Z,34.00
2018-04-12T16:25:39.958Z,34.40
2018-04-12T16:28:08.285Z,34.60
2018-04-12T16:30:35.837Z,34.60
2018-04-12T16:33:03.339Z,34.70
2018-04-12T16:35:31.015Z,34.70
2018-04-12T16:37:58.562Z,34.70
2018-04-12T16:40:26.194Z,34.80
2018-04-12T16:42:53.755Z,35.00
2018-04-12T16:45:21.360Z,34.90
2018-04-12T16:47:48.963Z,35.00
2018-04-12T16:50:16.477Z,35.20
2018-04-12T16:52:44.818Z,35.30
2018-04-12T16:55:12.305Z,35.20
2018-04-12T16:57:40.004Z,35.20
2018-04-12T17:00:07.544Z,35.30
2018-04-12T17:02:35.089Z,35.30
2018-04-12T17:05:03.623Z,36.00
2018-04-12T17:07:31.326Z,36.50
2018-04-12T17:09:59.684Z,37.50
2018-04-12T17:12:27.213Z,36.90
2018-04-12T17:14:54.746Z,36.80
2018-04-12T17:17:22.236Z,36.90
2018-04-12T17:19:49.719Z,37.00
2018-04-12T17:22:17.405Z,37.00
2018-04-12T17:24:44.923Z,37.70
2018-04-12T17:27:12.425Z,37.20
2018-04-12T17:29:40.003Z,37.40
2018-04-12T17:32:07.598Z,37.50
2018-04-12T17:34:35.883Z,38.10
2018-04-12T17:37:03.435Z,37.90
2018-04-12T17:39:30.985Z,37.90
2018-04-12T17:41:58.457Z,38.10
2018-04-12T17:44:26.067Z,38.30
2018-04-12T17:46:53.574Z,38.50
2018-04-12T17:49:21.262Z,39.10
2018-04-12T17:51:48.850Z,40.40
2018-04-12T17:54:16.364Z,41.90
2018-04-12T17:56:43.899Z,43.50
2018-04-12T17:59:11.523Z,44.60
2018-04-12T18:01:39.208Z,45.90
2018-04-12T18:04:06.805Z,46.70
2018-04-12T18:06:34.277Z,47.60
2018-04-12T18:09:01.762Z,48.70
2018-04-12T18:11:30.056Z,51.00
2018-04-12T18:13:57.592Z,50.90
2018-04-12T18:16:25.890Z,52.80
2018-04-12T18:18:53.477Z,52.80
2018-04-12T18:21:21.588Z,53.10
2018-04-12T18:23:49.193Z,53.60
2018-04-12T18:26:16.838Z,54.30
2018-04-12T18:28:44.296Z,54.90
2018-04-12T18:31:11.770Z,55.20
2018-04-12T18:33:39.417Z,55.50
2018-04-12T18:36:07.006Z,55.90
2018-04-12T18:38:34.529Z,56.50
2018-04-12T18:41:02.055Z,57.00
2018-04-12T18:43:29.552Z,57.30
2018-04-12T18:45:57.050Z,58.10
2018-04-12T18:48:24.528Z,57.90
2018-04-12T18:50:52.688Z,58.30
2018-04-12T18:53:20.269Z,58.70
2018-04-12T18:55:47.851Z,59.00
2018-04-12T18:58:15.358Z,59.30
2018-04-12T19:00:43.041Z,59.90
2018-04-12T19:03:10.626Z,60.20
2018-04-12T19:05:38.910Z,60.80
2018-04-12T19:08:06.499Z,60.80
2018-04-12T19:10:33.940Z,61.20
2018-04-12T19:13:01.475Z,61.50
2018-04-12T19:15:29.021Z,61.80
2018-04-12T19:17:56.501Z,62.20
2018-04-12T19:20:23.981Z,62.60
2018-04-12T19:22:51.485Z,63.00
2018-04-12T19:25:18.950Z,63.30
2018-04-12T19:27:46.421Z,63.30
2018-04-12T19:30:13.910Z,63.50
2018-04-12T19:32:41.395Z,63.70
2018-04-12T19:35:08.864Z,64.00
2018-04-12T19:37:36.355Z,64.10
2018-04-12T19:40:04.613Z,63.30
2018-04-12T19:42:32.100Z,63.30
2018-04-12T19:44:59.568Z,62.80
2018-04-12T19:47:27.030Z,62.60
2018-04-12T19:49:54.506Z,62.40
2018-04-12T19:52:21.989Z,62.30
2018-04-12T19:54:49.464Z,62.50
2018-04-12T19:57:17.689Z,62.60
2018-04-12T19:59:45.174Z,62.50
2018-04-12T20:02:12.666Z,62.30
2018-04-12T20:04:40.402Z,62.40
2018-04-12T20:07:07.865Z,62.60
2018-04-12T20:09:35.354Z,62.50
2018-04-12T20:12:02.818Z,62.60
2018-04-12T20:14:30.290Z,62.70
2018-04-12T20:16:57.925Z,62.80
2018-04-12T20:19:25.403Z,62.60
2018-04-12T20:21:52.856Z,62.50
2018-04-12T20:24:20.306Z,62.30
2018-04-12T20:26:47.783Z,62.30
2018-04-12T20:29:15.269Z,62.10
2018-04-12T20:31:42.737Z,62.30
2018-04-12T20:34:10.206Z,62.40
2018-04-12T20:36:37.878Z,62.50
2018-04-12T20:39:05.380Z,62.70
2018-04-12T20:41:32.852Z,63.40
2018-04-12T20:44:00.340Z,62.80
2018-04-12T20:46:27.809Z,63.00
2018-04-12T20:48:55.292Z,63.20
2018-04-12T20:51:22.998Z,63.60
2018-04-12T20:53:50.462Z,64.00
2018-04-12T20:56:17.917Z,64.20
2018-04-12T20:58:45.674Z,64.50
2018-04-12T21:01:13.140Z,64.70
2018-04-12T21:03:40.604Z,64.90
2018-04-12T21:06:08.133Z,65.10
2018-04-12T21:08:35.758Z,65.30
2018-04-12T21:11:04.161Z,65.40
2018-04-12T21:13:31.657Z,65.70
2018-04-12T21:15:59.127Z,65.90
2018-04-12T21:18:26.634Z,67.00
2018-04-12T21:20:54.098Z,67.00
2018-04-12T21:23:21.549Z,67.20
2018-04-12T21:25:49.118Z,67.40
2018-04-12T21:28:16.565Z,67.40
2018-04-12T21:30:44.154Z,67.40
2018-04-12T21:33:11.610Z,67.60
2018-04-12T21:35:39.321Z,67.40
2018-04-12T21:38:06.798Z,67.50
2018-04-12T21:40:34.270Z,67.70
2018-04-12T21:43:01.783Z,67.90
2018-04-12T21:45:29.301Z,68.00
2018-04-12T21:47:56.762Z,67.90
2018-04-12T21:50:24.246Z,67.80
2018-04-12T21:52:52.481Z,68.10
2018-04-12T21:55:19.958Z,68.00
2018-04-12T21:57:47.412Z,68.10
2018-04-12T22:00:14.918Z,68.20
2018-04-12T22:02:42.628Z,68.20
2018-04-12T22:05:10.090Z,68.30
2018-04-12T22:07:37.545Z,68.30
2018-04-12T22:10:05.205Z,68.30
2018-04-12T22:12:32.661Z,68.40
2018-04-12T22:15:00.213Z,68.30
2018-04-12T22:17:27.669Z,68.30
2018-04-12T22:19:55.963Z,68.50
2018-04-12T22:22:23.429Z,68.50
2018-04-12T22:24:50.872Z,68.60
2018-04-12T22:27:18.332Z,68.70
2018-04-12T22:29:45.780Z,68.80
2018-04-12T22:32:13.245Z,68.70
2018-04-12T22:34:40.704Z,68.80
2018-04-12T22:37:08.241Z,68.70
2018-04-12T22:39:35.715Z,68.80
2018-04-12T22:42:03.380Z,68.90
2018-04-12T22:44:30.920Z,68.90
2018-04-12T22:46:58.593Z,69.00
2018-04-12T22:49:26.109Z,68.90
2018-04-12T22:51:53.604Z,69.00
2018-04-12T22:54:21.406Z,69.20
2018-04-12T22:56:49.036Z,69.20
2018-04-12T22:59:16.492Z,69.20
2018-04-12T23:01:43.960Z,69.40
2018-04-12T23:04:11.406Z,69.40
2018-04-12T23:06:38.876Z,69.50
2018-04-12T23:09:06.413Z,69.60
2018-04-12T23:11:33.985Z,69.60
2018-04-12T23:14:01.546Z,69.60
2018-04-12T23:16:30.009Z,69.50
2018-04-12T23:18:57.772Z,69.60
2018-04-12T23:21:25.626Z,69.60
2018-04-12T23:23:53.159Z,69.70
2018-04-12T23:26:20.573Z,69.70
2018-04-12T23:28:48.793Z,69.90
2018-04-12T23:31:16.264Z,69.80
2018-04-12T23:33:43.930Z,69.90
2018-04-12T23:36:11.505Z,70.00
2018-04-12T23:38:39.140Z,70.00
2018-04-12T23:41:06.592Z,69.90
2018-04-12T23:43:34.096Z,69.90
2018-04-12T23:46:02.473Z,69.70
2018-04-12T23:48:30.018Z,69.70
2018-04-12T23:50:57.665Z,69.90
2018-04-12T23:53:25.122Z,69.80
2018-04-12T23:55:52.604Z,69.90
2018-04-12T23:58:20.070Z,69.80
